sensor_id;sensor_type;location;lat;lon;timestamp;temperature;humidity
15239;DHT22;7722;53.274;9.500;2024-03-23T00:54:52;5.70;99.90
15239;DHT22;7722;53.274;9.500;2024-03-23T00:57:18;5.70;99.90
15239;DHT22;7722;53.274;9.500;2024-03-23T00:59:45;5.60;99.90
15239;DHT22;7722;53.274;9.500;2024-03-23T01:02:12;5.60;99.90
15239;DHT22;7722;53.274;9.500;2024-03-23T01:04:39;5.60;99.90
15239;DHT22;7722;53.274;9.500;2024-03-23T01:07:05;5.50;99.90
15239;DHT22;7722;53.274;9.500;2024-03-23T01:09:33;5.50;99.90
15239;DHT22;7722;53.274;9.500;2024-03-23T01:12:01;5.50;99.90
15239;DHT22;7722;53.274;9.500;2024-03-23T01:14:28;5.60;99.90
15239;DHT22;7722;53.274;9.500;2024-03-23T01:16:54;5.60;99.90
15239;DHT22;7722;53.274;9.500;2024-03-23T01:19:21;5.60;99.90
15239;DHT22;7722;53.274;9.500;2024-03-23T01:21:48;5.60;99.90
15239;DHT22;7722;53.274;9.500;2024-03-23T01:24:17;5.60;99.90
15239;DHT22;7722;53.274;9.500;2024-03-23T01:26:43;5.60;99.90
15239;DHT22;7722;53.274;9.500;2024-03-23T01:29:12;5.50;99.90
15239;DHT22;7722;53.274;9.500;2024-03-23T01:31:39;5.50;99.90
15239;DHT22;7722;53.274;9.500;2024-03-23T01:34:08;5.50;99.90
15239;DHT22;7722;53.274;9.500;2024-03-23T01:36:34;5.40;99.90
15239;DHT22;7722;53.274;9.500;2024-03-23T01:39:04;5.40;99.90
15239;DHT22;7722;53.274;9.500;2024-03-23T01:41:32;5.40;99.90
15239;DHT22;7722;53.274;9.500;2024-03-23T01:44:05;5.40;99.90
15239;DHT22;7722;53.274;9.500;2024-03-23T01:46:33;5.40;99.90
15239;DHT22;7722;53.274;9.500;2024-03-23T01:49:01;5.40;99.90
15239;DHT22;7722;53.274;9.500;2024-03-23T01:51:28;5.40;99.90
15239;DHT22;7722;53.274;9.500;2024-03-23T01:53:56;5.40;99.90
15239;DHT22;7722;53.274;9.500;2024-03-23T01:56:23;5.40;99.90
15239;DHT22;7722;53.274;9.500;2024-03-23T01:58:50;5.40;99.90
15239;DHT22;7722;53.274;9.500;2024-03-23T02:01:16;5.30;99.90
15239;DHT22;7722;53.274;9.500;2024-03-23T02:03:47;5.30;99.90
15239;DHT22;7722;53.274;9.500;2024-03-23T02:06:13;5.30;99.90
15239;DHT22;7722;53.274;9.500;2024-03-23T02:08:41;5.20;99.90
15239;DHT22;7722;53.274;9.500;2024-03-23T02:11:07;5.20;99.90
15239;DHT22;7722;53.274;9.500;2024-03-23T02:13:34;5.20;99.90
15239;DHT22;7722;53.274;9.500;2024-03-23T02:16:01;5.20;99.90
15239;DHT22;7722;53.274;9.500;2024-03-23T02:18:28;5.20;99.90
15239;DHT22;7722;53.274;9.500;2024-03-23T02:21:01;5.30;99.90
15239;DHT22;7722;53.274;9.500;2024-03-23T02:23:35;5.30;99.90
15239;DHT22;7722;53.274;9.500;2024-03-23T02:26:04;5.30;99.90
15239;DHT22;7722;53.274;9.500;2024-03-23T02:28:32;5.30;99.90
15239;DHT22;7722;53.274;9.500;2024-03-23T02:30:58;5.20;99.90
15239;DHT22;7722;53.274;9.500;2024-03-23T02:33:30;5.20;99.90
15239;DHT22;7722;53.274;9.500;2024-03-23T02:36:01;5.20;99.90
15239;DHT22;7722;53.274;9.500;2024-03-23T02:38:49;5.20;99.90
15239;DHT22;7722;53.274;9.500;2024-03-23T02:41:15;5.10;99.90
15239;DHT22;7722;53.274;9.500;2024-03-23T02:43:49;5.10;99.90
15239;DHT22;7722;53.274;9.500;2024-03-23T02:46:15;5.10;99.90
15239;DHT22;7722;53.274;9.500;2024-03-23T02:48:43;5.00;99.90
15239;DHT22;7722;53.274;9.500;2024-03-23T02:51:12;5.00;99.90
15239;DHT22;7722;53.274;9.500;2024-03-23T02:53:39;5.00;99.90
15239;DHT22;7722;53.274;9.500;2024-03-23T02:56:08;5.00;99.90
15239;DHT22;7722;53.274;9.500;2024-03-23T02:58:41;5.10;99.90
15239;DHT22;7722;53.274;9.500;2024-03-23T03:01:07;5.00;99.90
15239;DHT22;7722;53.274;9.500;2024-03-23T03:03:35;5.00;99.90
15239;DHT22;7722;53.274;9.500;2024-03-23T03:06:01;5.10;99.90
15239;DHT22;7722;53.274;9.500;2024-03-23T03:08:28;5.10;99.90
15239;DHT22;7722;53.274;9.500;2024-03-23T03:10:54;5.00;99.90
15239;DHT22;7722;53.274;9.500;2024-03-23T03:13:23;5.00;99.90
15239;DHT22;7722;53.274;9.500;2024-03-23T03:15:52;5.00;99.90
15239;DHT22;7722;53.274;9.500;2024-03-23T03:18:20;5.00;99.90
15239;DHT22;7722;53.274;9.500;2024-03-23T03:20:46;4.90;99.90
15239;DHT22;7722;53.274;9.500;2024-03-23T03:23:13;5.10;99.90
15239;DHT22;7722;53.274;9.500;2024-03-23T03:25:39;5.10;99.90
15239;DHT22;7722;53.274;9.500;2024-03-23T03:28:06;5.10;99.90
15239;DHT22;7722;53.274;9.500;2024-03-23T03:30:35;5.10;99.90
15239;DHT22;7722;53.274;9.500;2024-03-23T03:33:02;5.10;99.90
15239;DHT22;7722;53.274;9.500;2024-03-23T03:35:30;5.00;99.90
15239;DHT22;7722;53.274;9.500;2024-03-23T03:37:58;5.00;99.90
15239;DHT22;7722;53.274;9.500;2024-03-23T03:40:24;5.00;99.90
15239;DHT22;7722;53.274;9.500;2024-03-23T03:42:53;5.00;99.90
15239;DHT22;7722;53.274;9.500;2024-03-23T03:45:19;5.00;99.90
15239;DHT22;7722;53.274;9.500;2024-03-23T03:47:49;5.00;99.90
15239;DHT22;7722;53.274;9.500;2024-03-23T03:50:15;5.00;99.90
15239;DHT22;7722;53.274;9.500;2024-03-23T03:52:42;4.90;99.90
15239;DHT22;7722;53.274;9.500;2024-03-23T03:55:14;4.90;99.90
15239;DHT22;7722;53.274;9.500;2024-03-23T03:57:41;4.90;99.90
15239;DHT22;7722;53.274;9.500;2024-03-23T04:00:08;4.90;99.90
15239;DHT22;7722;53.274;9.500;2024-03-23T04:02:36;4.90;99.90
15239;DHT22;7722;53.274;9.500;2024-03-23T04:05:08;4.90;99.90
15239;DHT22;7722;53.274;9.500;2024-03-23T04:07:35;4.90;99.90
15239;DHT22;7722;53.274;9.500;2024-03-23T04:10:03;5.00;99.90
15239;DHT22;7722;53.274;9.500;2024-03-23T04:12:33;4.90;99.90
15239;DHT22;7722;53.274;9.500;2024-03-23T04:14:59;4.80;99.90
15239;DHT22;7722;53.274;9.500;2024-03-23T04:17:31;4.90;99.90
15239;DHT22;7722;53.274;9.500;2024-03-23T04:20:12;4.90;99.90
15239;DHT22;7722;53.274;9.500;2024-03-23T04:22:42;4.80;99.90
15239;DHT22;7722;53.274;9.500;2024-03-23T04:25:08;4.80;99.90
15239;DHT22;7722;53.274;9.500;2024-03-23T04:27:36;4.80;99.90
15239;DHT22;7722;53.274;9.500;2024-03-23T04:30:03;4.80;99.90
15239;DHT22;7722;53.274;9.500;2024-03-23T04:32:35;4.80;99.90
15239;DHT22;7722;53.274;9.500;2024-03-23T04:35:01;4.70;99.90
15239;DHT22;7722;53.274;9.500;2024-03-23T04:37:32;4.70;99.90
15239;DHT22;7722;53.274;9.500;2024-03-23T04:40:00;4.70;99.90
15239;DHT22;7722;53.274;9.500;2024-03-23T04:42:28;4.70;99.90
15239;DHT22;7722;53.274;9.500;2024-03-23T04:44:55;4.60;99.90
15239;DHT22;7722;53.274;9.500;2024-03-23T04:47:21;4.60;99.90
15239;DHT22;7722;53.274;9.500;2024-03-23T04:49:49;4.60;99.90
15239;DHT22;7722;53.274;9.500;2024-03-23T04:52:16;4.60;99.90
15239;DHT22;7722;53.274;9.500;2024-03-23T04:54:45;4.70;99.90
15239;DHT22;7722;53.274;9.500;2024-03-23T04:57:12;4.70;99.90
15239;DHT22;7722;53.274;9.500;2024-03-23T04:59:39;4.70;99.90
15239;DHT22;7722;53.274;9.500;2024-03-23T05:02:06;4.70;99.90
15239;DHT22;7722;53.274;9.500;2024-03-23T05:04:32;4.70;99.90
15239;DHT22;7722;53.274;9.500;2024-03-23T05:06:59;4.70;99.90
15239;DHT22;7722;53.274;9.500;2024-03-23T05:09:25;4.70;99.90
15239;DHT22;7722;53.274;9.500;2024-03-23T05:11:57;4.70;99.90
15239;DHT22;7722;53.274;9.500;2024-03-23T05:14:23;4.70;99.90
15239;DHT22;7722;53.274;9.500;2024-03-23T05:16:50;4.70;99.90
15239;DHT22;7722;53.274;9.500;2024-03-23T05:19:16;4.70;99.90
15239;DHT22;7722;53.274;9.500;2024-03-23T05:21:43;4.60;99.90
15239;DHT22;7722;53.274;9.500;2024-03-23T05:24:09;4.60;99.90
15239;DHT22;7722;53.274;9.500;2024-03-23T05:26:37;4.60;99.90
15239;DHT22;7722;53.274;9.500;2024-03-23T05:29:05;4.60;99.90
15239;DHT22;7722;53.274;9.500;2024-03-23T05:31:36;4.60;99.90
15239;DHT22;7722;53.274;9.500;2024-03-23T05:34:03;4.60;99.90
15239;DHT22;7722;53.274;9.500;2024-03-23T05:36:30;4.60;99.90
15239;DHT22;7722;53.274;9.500;2024-03-23T05:38:58;4.60;99.90
15239;DHT22;7722;53.274;9.500;2024-03-23T05:41:25;4.60;99.90
15239;DHT22;7722;53.274;9.500;2024-03-23T05:43:51;4.60;99.90
15239;DHT22;7722;53.274;9.500;2024-03-23T05:46:19;4.60;99.90
15239;DHT22;7722;53.274;9.500;2024-03-23T05:48:46;4.70;99.90
15239;DHT22;7722;53.274;9.500;2024-03-23T05:51:13;4.70;99.90
15239;DHT22;7722;53.274;9.500;2024-03-23T05:53:39;4.70;99.90
15239;DHT22;7722;53.274;9.500;2024-03-23T05:56:06;4.70;99.90
15239;DHT22;7722;53.274;9.500;2024-03-23T05:58:33;4.70;99.90
15239;DHT22;7722;53.274;9.500;2024-03-23T06:01:02;4.80;99.90
15239;DHT22;7722;53.274;9.500;2024-03-23T06:03:30;4.80;99.90
15239;DHT22;7722;53.274;9.500;2024-03-23T06:05:57;4.80;99.90
15239;DHT22;7722;53.274;9.500;2024-03-23T06:08:23;4.80;99.90
15239;DHT22;7722;53.274;9.500;2024-03-23T06:10:51;4.80;99.90
15239;DHT22;7722;53.274;9.500;2024-03-23T06:13:17;4.90;99.90
15239;DHT22;7722;53.274;9.500;2024-03-23T06:15:44;4.90;99.90
15239;DHT22;7722;53.274;9.500;2024-03-23T06:18:12;4.90;99.90
15239;DHT22;7722;53.274;9.500;2024-03-23T06:20:40;4.90;99.90
15239;DHT22;7722;53.274;9.500;2024-03-23T06:23:07;4.90;99.90
15239;DHT22;7722;53.274;9.500;2024-03-23T06:25:34;4.90;99.90
15239;DHT22;7722;53.274;9.500;2024-03-23T06:28:00;4.90;99.90
15239;DHT22;7722;53.274;9.500;2024-03-23T06:30:29;4.90;99.90
15239;DHT22;7722;53.274;9.500;2024-03-23T06:32:55;4.90;99.90
15239;DHT22;7722;53.274;9.500;2024-03-23T06:35:22;4.90;99.90
15239;DHT22;7722;53.274;9.500;2024-03-23T06:37:50;4.90;99.90
15239;DHT22;7722;53.274;9.500;2024-03-23T06:40:17;5.00;99.90
15239;DHT22;7722;53.274;9.500;2024-03-23T06:42:43;4.90;99.90
15239;DHT22;7722;53.274;9.500;2024-03-23T06:45:10;5.00;99.90
15239;DHT22;7722;53.274;9.500;2024-03-23T06:47:36;4.90;99.90
15239;DHT22;7722;53.274;9.500;2024-03-23T06:50:04;4.90;99.90
15239;DHT22;7722;53.274;9.500;2024-03-23T06:52:30;5.00;99.90
15239;DHT22;7722;53.274;9.500;2024-03-23T06:54:59;5.00;99.90
15239;DHT22;7722;53.274;9.500;2024-03-23T06:57:25;5.00;99.90
15239;DHT22;7722;53.274;9.500;2024-03-23T06:59:52;5.10;99.90
15239;DHT22;7722;53.274;9.500;2024-03-23T07:02:18;5.20;99.90
15239;DHT22;7722;53.274;9.500;2024-03-23T07:04:45;5.20;99.90
15239;DHT22;7722;53.274;9.500;2024-03-23T07:07:12;5.20;99.90
15239;DHT22;7722;53.274;9.500;2024-03-23T07:09:39;5.20;99.90
15239;DHT22;7722;53.274;9.500;2024-03-23T07:12:07;5.30;99.90
15239;DHT22;7722;53.274;9.500;2024-03-23T07:14:34;5.40;99.90
15239;DHT22;7722;53.274;9.500;2024-03-23T07:17:00;5.50;99.90
15239;DHT22;7722;53.274;9.500;2024-03-23T07:19:27;5.50;99.90
15239;DHT22;7722;53.274;9.500;2024-03-23T07:21:54;5.60;99.90
15239;DHT22;7722;53.274;9.500;2024-03-23T07:24:21;5.70;99.90
15239;DHT22;7722;53.274;9.500;2024-03-23T07:26:47;5.80;99.90
15239;DHT22;7722;53.274;9.500;2024-03-23T07:29:18;5.80;99.90
15239;DHT22;7722;53.274;9.500;2024-03-23T07:31:44;5.90;99.90
15239;DHT22;7722;53.274;9.500;2024-03-23T07:34:11;6.00;99.90
15239;DHT22;7722;53.274;9.500;2024-03-23T07:36:37;6.10;99.90
15239;DHT22;7722;53.274;9.500;2024-03-23T07:39:04;6.20;99.90
15239;DHT22;7722;53.274;9.500;2024-03-23T07:41:30;6.30;99.90
15239;DHT22;7722;53.274;9.500;2024-03-23T07:43:57;6.40;99.90
15239;DHT22;7722;53.274;9.500;2024-03-23T07:46:25;6.50;99.90
15239;DHT22;7722;53.274;9.500;2024-03-23T07:48:52;6.60;99.90
15239;DHT22;7722;53.274;9.500;2024-03-23T07:51:22;6.70;99.90
15239;DHT22;7722;53.274;9.500;2024-03-23T07:53:49;6.90;99.90
15239;DHT22;7722;53.274;9.500;2024-03-23T07:56:16;7.10;99.90
15239;DHT22;7722;53.274;9.500;2024-03-23T07:58:44;7.10;99.90
15239;DHT22;7722;53.274;9.500;2024-03-23T08:01:12;7.10;99.90
15239;DHT22;7722;53.274;9.500;2024-03-23T08:03:44;7.10;99.90
15239;DHT22;7722;53.274;9.500;2024-03-23T08:06:12;7.30;99.90
15239;DHT22;7722;53.274;9.500;2024-03-23T08:08:40;7.40;99.90
15239;DHT22;7722;53.274;9.500;2024-03-23T08:11:06;7.60;99.90
15239;DHT22;7722;53.274;9.500;2024-03-23T08:13:34;7.50;99.90
15239;DHT22;7722;53.274;9.500;2024-03-23T08:16:01;7.40;99.90
15239;DHT22;7722;53.274;9.500;2024-03-23T08:18:28;7.50;99.90
15239;DHT22;7722;53.274;9.500;2024-03-23T08:21:01;7.90;99.90
15239;DHT22;7722;53.274;9.500;2024-03-23T08:23:31;8.00;99.90
15239;DHT22;7722;53.274;9.500;2024-03-23T08:26:00;8.10;99.90
15239;DHT22;7722;53.274;9.500;2024-03-23T08:28:29;8.20;99.90
15239;DHT22;7722;53.274;9.500;2024-03-23T08:30:56;8.30;99.90
15239;DHT22;7722;53.274;9.500;2024-03-23T08:33:24;8.80;99.90
15239;DHT22;7722;53.274;9.500;2024-03-23T08:35:54;9.00;99.90
15239;DHT22;7722;53.274;9.500;2024-03-23T08:38:25;8.90;99.90
15239;DHT22;7722;53.274;9.500;2024-03-23T08:40:56;8.80;99.90
15239;DHT22;7722;53.274;9.500;2024-03-23T08:43:24;8.90;99.90
15239;DHT22;7722;53.274;9.500;2024-03-23T08:45:50;9.00;99.90
15239;DHT22;7722;53.274;9.500;2024-03-23T08:48:18;9.10;99.90
15239;DHT22;7722;53.274;9.500;2024-03-23T08:50:46;9.10;99.90
15239;DHT22;7722;53.274;9.500;2024-03-23T08:53:14;8.90;99.90
15239;DHT22;7722;53.274;9.500;2024-03-23T08:55:42;9.20;99.90
15239;DHT22;7722;53.274;9.500;2024-03-23T08:58:09;9.20;99.90
15239;DHT22;7722;53.274;9.500;2024-03-23T09:00:35;8.70;99.90
15239;DHT22;7722;53.274;9.500;2024-03-23T09:03:02;8.90;99.90
15239;DHT22;7722;53.274;9.500;2024-03-23T09:05:30;8.90;99.90
15239;DHT22;7722;53.274;9.500;2024-03-23T09:08:02;9.30;99.90
15239;DHT22;7722;53.274;9.500;2024-03-23T09:10:29;9.50;99.90
15239;DHT22;7722;53.274;9.500;2024-03-23T09:12:58;9.70;99.90
15239;DHT22;7722;53.274;9.500;2024-03-23T09:15:25;9.80;99.90
15239;DHT22;7722;53.274;9.500;2024-03-23T09:17:52;10.30;99.90
15239;DHT22;7722;53.274;9.500;2024-03-23T09:20:19;9.90;99.90
15239;DHT22;7722;53.274;9.500;2024-03-23T09:22:48;9.90;99.90
15239;DHT22;7722;53.274;9.500;2024-03-23T09:25:14;10.10;99.90
15239;DHT22;7722;53.274;9.500;2024-03-23T09:27:42;9.70;99.90
15239;DHT22;7722;53.274;9.500;2024-03-23T09:30:10;9.40;99.90
15239;DHT22;7722;53.274;9.500;2024-03-23T09:32:38;8.90;99.90
15239;DHT22;7722;53.274;9.500;2024-03-23T09:35:05;8.90;99.90
15239;DHT22;7722;53.274;9.500;2024-03-23T09:37:32;8.70;99.90
15239;DHT22;7722;53.274;9.500;2024-03-23T09:39:58;8.90;99.90
15239;DHT22;7722;53.274;9.500;2024-03-23T09:42:25;9.50;99.90
15239;DHT22;7722;53.274;9.500;2024-03-23T09:44:51;10.00;99.90
15239;DHT22;7722;53.274;9.500;2024-03-23T09:47:21;10.60;99.90
15239;DHT22;7722;53.274;9.500;2024-03-23T09:49:47;10.60;99.90
15239;DHT22;7722;53.274;9.500;2024-03-23T09:52:14;10.60;99.90
15239;DHT22;7722;53.274;9.500;2024-03-23T09:54:40;10.50;99.90
15239;DHT22;7722;53.274;9.500;2024-03-23T09:57:08;10.70;99.90
15239;DHT22;7722;53.274;9.500;2024-03-23T09:59:34;10.30;99.90
15239;DHT22;7722;53.274;9.500;2024-03-23T10:02:01;10.40;99.90
15239;DHT22;7722;53.274;9.500;2024-03-23T10:04:38;10.20;99.90
15239;DHT22;7722;53.274;9.500;2024-03-23T10:07:12;10.00;99.90
15239;DHT22;7722;53.274;9.500;2024-03-23T10:09:38;10.00;99.90
15239;DHT22;7722;53.274;9.500;2024-03-23T10:12:09;10.20;99.90
15239;DHT22;7722;53.274;9.500;2024-03-23T10:14:36;10.60;99.90
15239;DHT22;7722;53.274;9.500;2024-03-23T10:17:17;10.80;99.90
15239;DHT22;7722;53.274;9.500;2024-03-23T10:19:46;10.50;99.90
15239;DHT22;7722;53.274;9.500;2024-03-23T10:22:17;10.10;99.90
15239;DHT22;7722;53.274;9.500;2024-03-23T10:24:44;9.80;99.90
15239;DHT22;7722;53.274;9.500;2024-03-23T10:27:15;9.60;99.90
15239;DHT22;7722;53.274;9.500;2024-03-23T10:29:42;9.40;99.90
15239;DHT22;7722;53.274;9.500;2024-03-23T10:32:10;9.60;99.90
15239;DHT22;7722;53.274;9.500;2024-03-23T10:34:37;9.30;99.90
15239;DHT22;7722;53.274;9.500;2024-03-23T10:37:07;9.20;99.90
15239;DHT22;7722;53.274;9.500;2024-03-23T10:39:34;9.30;99.90
15239;DHT22;7722;53.274;9.500;2024-03-23T10:42:03;9.90;99.90
15239;DHT22;7722;53.274;9.500;2024-03-23T10:44:29;10.50;99.90
15239;DHT22;7722;53.274;9.500;2024-03-23T10:46:58;10.90;99.90
15239;DHT22;7722;53.274;9.500;2024-03-23T10:49:28;10.70;99.90
15239;DHT22;7722;53.274;9.500;2024-03-23T10:52:00;10.10;99.90
15239;DHT22;7722;53.274;9.500;2024-03-23T10:54:28;9.80;99.90
15239;DHT22;7722;53.274;9.500;2024-03-23T10:57:02;9.80;99.90
15239;DHT22;7722;53.274;9.500;2024-03-23T10:59:29;9.70;99.90
15239;DHT22;7722;53.274;9.500;2024-03-23T11:01:59;9.70;99.90
15239;DHT22;7722;53.274;9.500;2024-03-23T11:04:36;9.50;99.90
15239;DHT22;7722;53.274;9.500;2024-03-23T11:07:30;9.60;99.90
15239;DHT22;7722;53.274;9.500;2024-03-23T11:09:59;9.50;99.90
15239;DHT22;7722;53.274;9.500;2024-03-23T11:12:27;9.40;99.90
15239;DHT22;7722;53.274;9.500;2024-03-23T11:14:55;9.10;99.90
15239;DHT22;7722;53.274;9.500;2024-03-23T11:17:25;9.10;99.90
15239;DHT22;7722;53.274;9.500;2024-03-23T11:19:56;9.00;99.90
15239;DHT22;7722;53.274;9.500;2024-03-23T11:22:42;9.40;99.90
15239;DHT22;7722;53.274;9.500;2024-03-23T11:25:17;9.90;99.90
15239;DHT22;7722;53.274;9.500;2024-03-23T11:27:46;10.40;99.90
15239;DHT22;7722;53.274;9.500;2024-03-23T11:30:14;11.00;99.90
15239;DHT22;7722;53.274;9.500;2024-03-23T11:32:42;11.30;99.90
15239;DHT22;7722;53.274;9.500;2024-03-23T11:35:09;11.50;99.90
15239;DHT22;7722;53.274;9.500;2024-03-23T11:37:38;11.00;99.90
15239;DHT22;7722;53.274;9.500;2024-03-23T11:40:24;11.10;99.90
15239;DHT22;7722;53.274;9.500;2024-03-23T11:42:55;11.80;99.90
15239;DHT22;7722;53.274;9.500;2024-03-23T11:45:23;11.70;99.90
15239;DHT22;7722;53.274;9.500;2024-03-23T11:48:02;11.30;99.90
15239;DHT22;7722;53.274;9.500;2024-03-23T11:50:28;10.50;99.90
15239;DHT22;7722;53.274;9.500;2024-03-23T11:53:07;10.30;99.90
15239;DHT22;7722;53.274;9.500;2024-03-23T11:55:45;10.10;99.90
15239;DHT22;7722;53.274;9.500;2024-03-23T11:58:15;9.80;99.90
15239;DHT22;7722;53.274;9.500;2024-03-23T12:00:49;10.30;99.90
15239;DHT22;7722;53.274;9.500;2024-03-23T12:03:18;10.00;99.90
15239;DHT22;7722;53.274;9.500;2024-03-23T12:05:51;9.40;99.90
15239;DHT22;7722;53.274;9.500;2024-03-23T12:08:20;9.10;99.90
15239;DHT22;7722;53.274;9.500;2024-03-23T12:10:50;9.00;99.90
15239;DHT22;7722;53.274;9.500;2024-03-23T12:13:18;9.50;99.90
15239;DHT22;7722;53.274;9.500;2024-03-23T12:15:45;10.20;99.90
15239;DHT22;7722;53.274;9.500;2024-03-23T12:18:13;10.60;99.90
15239;DHT22;7722;53.274;9.500;2024-03-23T12:20:39;9.90;99.90
15239;DHT22;7722;53.274;9.500;2024-03-23T12:23:08;8.30;99.90
15239;DHT22;7722;53.274;9.500;2024-03-23T12:25:35;6.80;99.90
15239;DHT22;7722;53.274;9.500;2024-03-23T12:28:04;5.90;99.90
15239;DHT22;7722;53.274;9.500;2024-03-23T12:30:32;5.90;99.90
15239;DHT22;7722;53.274;9.500;2024-03-23T12:32:59;5.80;99.90
15239;DHT22;7722;53.274;9.500;2024-03-23T12:35:25;5.80;99.90
15239;DHT22;7722;53.274;9.500;2024-03-23T12:37:52;5.90;99.90
15239;DHT22;7722;53.274;9.500;2024-03-23T12:40:18;6.10;99.90
15239;DHT22;7722;53.274;9.500;2024-03-23T12:42:45;6.90;99.90
15239;DHT22;7722;53.274;9.500;2024-03-23T12:45:13;7.80;99.90
15239;DHT22;7722;53.274;9.500;2024-03-23T12:47:40;8.20;99.90
15239;DHT22;7722;53.274;9.500;2024-03-23T12:50:07;9.20;99.90
15239;DHT22;7722;53.274;9.500;2024-03-23T12:52:35;8.80;99.90
15239;DHT22;7722;53.274;9.500;2024-03-23T12:55:01;8.10;99.90
15239;DHT22;7722;53.274;9.500;2024-03-23T12:57:31;7.40;99.90
15239;DHT22;7722;53.274;9.500;2024-03-23T12:59:58;6.90;99.90
15239;DHT22;7722;53.274;9.500;2024-03-23T13:02:26;6.30;99.90
15239;DHT22;7722;53.274;9.500;2024-03-23T13:04:53;6.10;99.90
15239;DHT22;7722;53.274;9.500;2024-03-23T13:07:21;5.80;99.90
15239;DHT22;7722;53.274;9.500;2024-03-23T13:09:50;5.40;99.90
15239;DHT22;7722;53.274;9.500;2024-03-23T13:12:17;5.20;99.90
15239;DHT22;7722;53.274;9.500;2024-03-23T13:14:44;5.10;99.90
15239;DHT22;7722;53.274;9.500;2024-03-23T13:17:12;5.00;99.90
15239;DHT22;7722;53.274;9.500;2024-03-23T13:19:39;4.90;99.90
15239;DHT22;7722;53.274;9.500;2024-03-23T13:22:09;4.90;99.90
15239;DHT22;7722;53.274;9.500;2024-03-23T13:24:38;5.40;99.90
15239;DHT22;7722;53.274;9.500;2024-03-23T13:27:05;6.30;99.90
15239;DHT22;7722;53.274;9.500;2024-03-23T13:29:33;6.90;99.90
15239;DHT22;7722;53.274;9.500;2024-03-23T13:32:01;6.90;99.90
15239;DHT22;7722;53.274;9.500;2024-03-23T13:34:27;6.80;99.90
15239;DHT22;7722;53.274;9.500;2024-03-23T13:36:56;7.00;99.90
15239;DHT22;7722;53.274;9.500;2024-03-23T13:39:24;7.60;99.90
15239;DHT22;7722;53.274;9.500;2024-03-23T13:41:53;8.80;99.90
15239;DHT22;7722;53.274;9.500;2024-03-23T13:44:20;9.60;99.90
15239;DHT22;7722;53.274;9.500;2024-03-23T13:46:47;9.90;99.90
15239;DHT22;7722;53.274;9.500;2024-03-23T13:49:24;10.30;99.90
15239;DHT22;7722;53.274;9.500;2024-03-23T13:51:52;10.40;99.90
15239;DHT22;7722;53.274;9.500;2024-03-23T13:54:19;11.80;99.90
15239;DHT22;7722;53.274;9.500;2024-03-23T13:56:48;12.10;99.90
15239;DHT22;7722;53.274;9.500;2024-03-23T13:59:14;11.60;99.90
15239;DHT22;7722;53.274;9.500;2024-03-23T14:01:41;11.60;99.90
15239;DHT22;7722;53.274;9.500;2024-03-23T14:04:08;12.10;99.90
15239;DHT22;7722;53.274;9.500;2024-03-23T14:06:35;11.90;99.90
15239;DHT22;7722;53.274;9.500;2024-03-23T14:09:01;11.80;99.90
15239;DHT22;7722;53.274;9.500;2024-03-23T14:11:30;12.40;99.90
15239;DHT22;7722;53.274;9.500;2024-03-23T14:13:56;12.20;99.90
15239;DHT22;7722;53.274;9.500;2024-03-23T14:16:23;12.00;99.90
15239;DHT22;7722;53.274;9.500;2024-03-23T14:18:51;10.70;99.90
15239;DHT22;7722;53.274;9.500;2024-03-23T14:21:20;10.30;99.90
15239;DHT22;7722;53.274;9.500;2024-03-23T14:23:47;9.70;99.90
15239;DHT22;7722;53.274;9.500;2024-03-23T14:26:13;9.70;99.90
15239;DHT22;7722;53.274;9.500;2024-03-23T14:28:42;10.50;99.90
15239;DHT22;7722;53.274;9.500;2024-03-23T14:31:08;10.90;99.90
15239;DHT22;7722;53.274;9.500;2024-03-23T14:33:36;10.30;99.90
15239;DHT22;7722;53.274;9.500;2024-03-23T14:36:04;9.90;99.90
15239;DHT22;7722;53.274;9.500;2024-03-23T14:38:31;9.00;99.90
15239;DHT22;7722;53.274;9.500;2024-03-23T14:40:58;9.00;99.90
15239;DHT22;7722;53.274;9.500;2024-03-23T14:43:26;9.90;99.90
15239;DHT22;7722;53.274;9.500;2024-03-23T14:46:10;10.70;99.90
15239;DHT22;7722;53.274;9.500;2024-03-23T14:48:38;10.90;99.90
15239;DHT22;7722;53.274;9.500;2024-03-23T14:51:05;10.70;99.90
15239;DHT22;7722;53.274;9.500;2024-03-23T14:53:34;10.60;99.90
15239;DHT22;7722;53.274;9.500;2024-03-23T14:56:01;10.50;99.90
15239;DHT22;7722;53.274;9.500;2024-03-23T14:58:28;10.00;99.90
15239;DHT22;7722;53.274;9.500;2024-03-23T15:01:00;10.20;99.90
15239;DHT22;7722;53.274;9.500;2024-03-23T15:03:29;10.20;99.90
15239;DHT22;7722;53.274;9.500;2024-03-23T15:05:57;10.20;99.90
15239;DHT22;7722;53.274;9.500;2024-03-23T15:08:24;10.70;99.90
15239;DHT22;7722;53.274;9.500;2024-03-23T15:10:51;10.80;99.90
15239;DHT22;7722;53.274;9.500;2024-03-23T15:13:17;10.80;99.90
15239;DHT22;7722;53.274;9.500;2024-03-23T15:15:45;10.60;99.90
15239;DHT22;7722;53.274;9.500;2024-03-23T15:18:11;10.70;99.90
15239;DHT22;7722;53.274;9.500;2024-03-23T15:20:41;11.30;99.90
15239;DHT22;7722;53.274;9.500;2024-03-23T15:23:08;11.00;99.90
15239;DHT22;7722;53.274;9.500;2024-03-23T15:25:35;10.30;99.90
15239;DHT22;7722;53.274;9.500;2024-03-23T15:28:01;9.70;99.90
15239;DHT22;7722;53.274;9.500;2024-03-23T15:30:28;9.50;99.90
15239;DHT22;7722;53.274;9.500;2024-03-23T15:32:55;9.00;99.90
15239;DHT22;7722;53.274;9.500;2024-03-23T15:35:22;8.50;99.90
15239;DHT22;7722;53.274;9.500;2024-03-23T15:37:50;7.90;99.90
15239;DHT22;7722;53.274;9.500;2024-03-23T15:40:17;7.30;99.90
15239;DHT22;7722;53.274;9.500;2024-03-23T15:42:43;6.20;99.90
15239;DHT22;7722;53.274;9.500;2024-03-23T15:45:10;5.70;99.90
15239;DHT22;7722;53.274;9.500;2024-03-23T15:47:37;5.40;99.90
15239;DHT22;7722;53.274;9.500;2024-03-23T15:50:05;4.90;99.90
15239;DHT22;7722;53.274;9.500;2024-03-23T15:52:34;4.80;99.90
15239;DHT22;7722;53.274;9.500;2024-03-23T15:55:03;5.30;99.90
15239;DHT22;7722;53.274;9.500;2024-03-23T15:57:33;6.00;99.90
15239;DHT22;7722;53.274;9.500;2024-03-23T16:00:00;6.60;99.90
15239;DHT22;7722;53.274;9.500;2024-03-23T16:02:26;6.90;99.90
15239;DHT22;7722;53.274;9.500;2024-03-23T16:04:53;7.20;99.90
15239;DHT22;7722;53.274;9.500;2024-03-23T16:07:19;7.80;99.90
15239;DHT22;7722;53.274;9.500;2024-03-23T16:09:46;8.40;99.90
15239;DHT22;7722;53.274;9.500;2024-03-23T16:12:14;8.70;99.90
15239;DHT22;7722;53.274;9.500;2024-03-23T16:14:42;8.70;99.90
15239;DHT22;7722;53.274;9.500;2024-03-23T16:17:08;9.10;99.90
15239;DHT22;7722;53.274;9.500;2024-03-23T16:19:35;9.00;99.90
15239;DHT22;7722;53.274;9.500;2024-03-23T16:22:01;9.40;99.90
15239;DHT22;7722;53.274;9.500;2024-03-23T16:24:28;9.70;99.90
15239;DHT22;7722;53.274;9.500;2024-03-23T16:26:54;9.50;99.90
15239;DHT22;7722;53.274;9.500;2024-03-23T16:29:22;9.20;99.90
15239;DHT22;7722;53.274;9.500;2024-03-23T16:31:48;9.50;99.90
15239;DHT22;7722;53.274;9.500;2024-03-23T16:34:15;9.40;99.90
15239;DHT22;7722;53.274;9.500;2024-03-23T16:36:41;9.10;99.90
15239;DHT22;7722;53.274;9.500;2024-03-23T16:39:08;8.50;99.90
15239;DHT22;7722;53.274;9.500;2024-03-23T16:41:34;8.20;99.90
15239;DHT22;7722;53.274;9.500;2024-03-23T16:44:01;7.90;99.90
15239;DHT22;7722;53.274;9.500;2024-03-23T16:46:29;7.70;99.90
15239;DHT22;7722;53.274;9.500;2024-03-23T16:48:56;7.60;99.90
15239;DHT22;7722;53.274;9.500;2024-03-23T16:51:22;7.30;99.90
15239;DHT22;7722;53.274;9.500;2024-03-23T16:53:49;6.90;99.90
15239;DHT22;7722;53.274;9.500;2024-03-23T16:56:15;6.60;99.90
15239;DHT22;7722;53.274;9.500;2024-03-23T16:58:43;6.40;99.90